Neil Armstrong — WARL — position and weather

sailwx.info

Track history (hours):
 
Tides and Currents Weather Stations Pressure Air Temp Water Temp Dewpoint Dewpoint Depression Visibility Wind Speed Wind Dir Waves Ship Positions

Oceanographic research ship Neil Armstrong (United States)

Owner: Woods Hole Oceanographic Institution, Woods Hole, MA. More information available from US FCC via Universal Licensing System and Coast Guard Vessel Documentation Center.

Last reported at 2017-Aug-17 00:00 UTC. Time now 2017-Aug-17 01:39 UTC.
Position N 56°48' W 048°42'.

Length 72 m; draft 4.4 m.

Type: Ship. MMSI: 338767000.

Wind from 340 at 16 knots

Barometer 1012.8 mb
Air temperature 9.4 ° C
Dewpoint 5.0 ° C
Water temperature 10.4 ° C

Date/timePositionNaut miles runAvg speedWind from/ knotsBaromVisibWave heightAir tempDewpointWater temp
2017-Aug-17 00:00N 56°48' W 048°42'1211.5 340 / 161012.8 9.4 5.010.4
2017-Aug-16 23:00N 56°54' W 048°24'1211.5 340 / 151012.4 9.3 4.610.4
2017-Aug-16 22:00N 57°00' W 048°06'9 8.9 340 / 161011.8 9.4 3.510.3
2017-Aug-16 21:00N 57°06' W 047°54'1111.5 300 / 131011.9 9.3 3.810.0
2017-Aug-16 20:00N 57°12' W 047°36'1111.4 320 / 101011.8 9.1 5.110.0
2017-Aug-16 19:00N 57°18' W 047°18'1111.4 320 / 101011.6 8.7 5.1 9.7
2017-Aug-16 18:00N 57°24' W 047°00'1111.4 270 / 61011.4 8.4 5.5 9.7
2017-Aug-16 17:00N 57°30' W 046°42'2311.4 280 / 41011.3 7.9 4.6 9.8
2017-Aug-16 15:00N 57°42' W 046°06'1111.3 280 / 81010.9 7.7 4.5 9.1
2017-Aug-16 14:00N 57°48' W 045°48'1111.3 150 / 31010.5 7.7 4.6 9.3
2017-Aug-16 13:00N 57°54' W 045°30'1111.3 160 / 21010.4 7.4 4.5 8.6
2017-Aug-16 12:00N 58°00' W 045°12'1111.3 150 / 21010.3 7.2 4.3 8.6
2017-Aug-16 11:00N 58°06' W 044°54'20 9.9 170 / 31010.4 6.5 3.8 8.7
2017-Aug-16 09:00N 58°18' W 044°24'1111.2 260 / 31009.7 8.0 2.8 8.3
2017-Aug-16 08:00N 58°24' W 044°06'1413.9 300 / 51009.5 7.5 4.1 8.2
2017-Aug-16 07:00N 58°30' W 043°42'1413.5 350 / 41009.3 7.8 5.4 8.4
2017-Aug-16 06:00N 58°42' W 043°30'1111.1 340 / 81008.7 7.7 5.3 8.5
2017-Aug-16 05:00N 58°48' W 043°12'1111.1 340 / 81008.4 7.8 5.5 8.8
2017-Aug-16 04:00N 58°54' W 042°54'1111.1 330 / 81007.9 7.7 5.9 8.9
2017-Aug-16 03:00N 59°00' W 042°36'1413.7 350 / 81007.8 8.4 6.4 8.7
2017-Aug-16 02:00N 59°06' W 042°12'1111.0 350 / 71007.6 8.4 6.1 8.5
2017-Aug-16 01:00N 59°12' W 041°54'1111.0 030 / 51007.5 8.7 5.4 8.7
2017-Aug-16 00:00N 59°18' W 041°36'1111.0 350 / 71007.2 9.0 6.5 9.0
2017-Aug-15 23:00N 59°24' W 041°18'1110.9 010 / 41006.9 9.1 6.0 8.9
2017-Aug-15 22:00N 59°30' W 041°00'1110.9 050 / 61006.6 9.2 5.3 9.2
2017-Aug-15 21:00N 59°36' W 040°42'9 9.1 030 / 51006.5 9.2 6.0 9.1
2017-Aug-15 20:00N 59°36' W 040°24'1110.9 040 / 71006.3 9.3 5.7 9.1
2017-Aug-15 19:00N 59°42' W 040°06'1110.9 040 / 81006.0 9.6 5.5 9.3
2017-Aug-15 18:00N 59°48' W 039°48'9 8.5 050 / 81005.8 9.6 5.0 9.5
2017-Aug-15 17:00N 59°54' W 039°36'6 6.0 040 / 91005.7 9.7 4.6 9.4
2017-Aug-15 16:00N 60°00' W 039°36'0 0.0 030 / 61005.7 9.6 5.0 9.5
2017-Aug-15 15:00N 60°00' W 039°36'0 0.0 040 / 61005.8 9.7 4.1 9.5
2017-Aug-15 14:00N 60°00' W 039°36'0 0.0 060 / 81005.8 9.8 3.6 9.6
2017-Aug-15 13:00N 60°00' W 039°36'0 0.0 070 / 91005.7 9.6 3.1 9.5
2017-Aug-15 12:00N 60°00' W 039°36'0 0.0 050 / 91005.8 9.2 4.9 9.5
2017-Aug-15 11:00N 60°00' W 039°36'0 0.0 020 / 91005.9 8.9 4.6 9.4
2017-Aug-15 10:00N 60°00' W 039°36'0 0.0 020 / 101006.0 8.7 3.6 9.4
2017-Aug-15 09:00N 60°00' W 039°36'0 0.0 040 / 41005.9 8.7 3.2 9.3
2017-Aug-15 08:00N 60°00' W 039°36'0 0.0 030 / 51006.0 8.3 3.9 9.3
2017-Aug-15 07:00N 60°00' W 039°36'0 0.0 040 / 51006.1 8.0 3.8 9.2
2017-Aug-15 06:00N 60°00' W 039°36'0 0.0 040 / 61006.1 7.7 3.5 9.2
2017-Aug-15 05:00N 60°00' W 039°36'0 0.0 070 / 31006.1 7.6 3.2 9.2
2017-Aug-15 04:00N 60°00' W 039°36'0 0.0 060 / 51006.2 7.1 3.3 9.2
2017-Aug-15 03:00N 60°00' W 039°36'0 0.0 140 / 41006.5 6.7 3.7 9.2
2017-Aug-15 02:00N 60°00' W 039°36'0 0.0 100 / 41006.6 6.2 3.4 9.2
2017-Aug-15 01:00N 60°00' W 039°36'0 0.0 120 / 61006.7 6.4 3.7 9.2
2017-Aug-15 00:00N 60°00' W 039°36'0 0.0 130 / 71006.9 6.4 3.9 9.2
2017-Aug-14 23:00N 60°00' W 039°36'0 0.0 070 / 41007.1 6.3 4.3 9.3
2017-Aug-14 22:00N 60°00' W 039°36'0 0.0 160 / 41006.9 6.5 4.7 9.3
2017-Aug-14 21:00N 60°00' W 039°36'0 0.0 130 / 71006.8 6.6 4.9 9.3
2017-Aug-14 20:00N 60°00' W 039°36'0 0.0 180 / 51006.5 6.5 4.8 9.3
2017-Aug-14 19:00N 60°00' W 039°36'0 0.0 180 / 61006.6 6.6 4.8 9.3
2017-Aug-14 18:00N 60°00' W 039°36'0 0.0 200 / 81006.7 6.8 4.9 9.2
2017-Aug-14 17:00N 60°00' W 039°36'0 0.0 190 / 91006.6 6.8 4.7 9.3
2017-Aug-14 16:00N 60°00' W 039°36'6 6.0 170 / 131006.8 6.7 4.7 9.3
2017-Aug-14 15:00N 59°54' W 039°36'3 3.0 160 / 101007.1 6.2 4.1 9.5
2017-Aug-14 14:00N 59°54' W 039°30'0 0.0 170 / 111007.1 5.9 3.7 9.5
2017-Aug-14 13:00N 59°54' W 039°30'0 0.0 160 / 91007.2 5.7 3.6 9.5
2017-Aug-14 12:00N 59°54' W 039°30'0 0.0 150 / 61007.5 5.9 3.7 9.4
2017-Aug-14 11:00N 59°54' W 039°30'0 0.0 180 / 91007.5 5.6 3.5 9.4
2017-Aug-14 10:00N 59°54' W 039°30'6 6.0 180 / 91007.6 5.6 3.4 9.4
2017-Aug-14 09:00N 60°00' W 039°30'0 0.0 230 / 51007.8 6.1 3.7 9.3
2017-Aug-14 08:00N 60°00' W 039°30'0 0.0 180 / 71007.9 6.5 4.0 9.2
2017-Aug-14 07:00N 60°00' W 039°30'7 6.7 170 / 81008.1 6.3 3.8 9.2
2017-Aug-14 06:00N 59°54' W 039°24'0 0.0 160 / 71008.4 6.4 3.7 9.3
2017-Aug-14 05:00N 59°54' W 039°24'0 0.0 110 / 61008.5 6.4 3.7 9.1
2017-Aug-14 04:00N 59°54' W 039°24'0 0.0 140 / 41008.6 6.4 3.4 9.1
2017-Aug-14 03:00N 59°54' W 039°24'0 0.0 120 / 21009.2 6.8 3.7 9.3
2017-Aug-14 02:00N 59°54' W 039°24'0 0.0 020 / 31009.5 7.0 3.9 9.3
2017-Aug-14 01:00N 59°54' W 039°24'0 0.0 090 / 21009.7 7.1 4.1 9.4
2017-Aug-14 00:00N 59°54' W 039°24'0 0.0 140 / 31009.6 7.1 4.0 9.4
2017-Aug-13 23:00N 59°54' W 039°24'0 0.0 100 / 31009.8 7.3 4.4 9.3
2017-Aug-13 22:00N 59°54' W 039°24'0 0.0 120 / 31009.6 7.4 4.5 9.3
2017-Aug-13 21:00N 59°54' W 039°24'0 0.0 330 / 31010.0 7.7 4.6 9.4
2017-Aug-13 20:00N 59°54' W 039°24'0 0.0 050 / 41010.0 7.8 4.7 9.3
2017-Aug-13 19:00N 59°54' W 039°24'0 0.0 320 / 31010.1 7.9 4.5 9.3
2017-Aug-13 18:00N 59°54' W 039°24'0 0.0 340 / 11010.3 8.2 4.7 9.2
2017-Aug-13 17:00N 59°54' W 039°24'0 0.0 060 / 41010.0 8.5 5.0 9.1
2017-Aug-13 16:00N 59°54' W 039°24'0 0.0 1010.1 8.6 4.6 9.2
2017-Aug-13 15:00N 59°54' W 039°24'0 0.0 060 / 41010.3 8.6 4.6 9.4
2017-Aug-13 14:00N 59°54' W 039°24'0 0.0 100 / 21010.5 8.6 4.5 9.3
2017-Aug-13 13:00N 59°54' W 039°24'0 0.0 100 / 41010.5 8.4 4.3 9.3
2017-Aug-13 12:00N 59°54' W 039°24'0 0.0 150 / 61010.7 7.9 4.6 9.2
2017-Aug-13 11:00N 59°54' W 039°24'0 0.0 190 / 41010.8 7.7 5.1 9.2
2017-Aug-13 10:00N 59°54' W 039°24'0 0.0 180 / 41010.9 7.6 5.1 9.1
2017-Aug-13 09:00N 59°54' W 039°24'0 0.0 220 / 71011.4 7.6 5.4 9.1
2017-Aug-13 08:00N 59°54' W 039°24'0 0.0 260 / 81011.5 7.4 5.1 9.1
2017-Aug-13 07:00N 59°54' W 039°24'0 0.0 240 / 151011.6 7.6 6.0 9.1
2017-Aug-13 06:00N 59°54' W 039°24'0 0.0 270 / 101011.7 7.9 6.1 9.2
2017-Aug-13 05:00N 59°54' W 039°24'0 0.0 270 / 51011.9 7.7 5.5 9.2
2017-Aug-13 04:00N 59°54' W 039°24'0 0.0 280 / 51012.2 7.4 5.6 9.2
2017-Aug-13 03:00N 59°54' W 039°24'0 0.0 290 / 81012.4 7.4 5.5 9.1
2017-Aug-13 02:00N 59°54' W 039°24'0 0.0 270 / 91012.4 8.1 5.4 9.2
2017-Aug-13 01:00N 59°54' W 039°24'0 0.0 270 / 111012.7 8.4 5.4 9.3
2017-Aug-13 00:00N 59°54' W 039°24'0 0.0 280 / 121012.7 8.0 5.1 9.3
2017-Aug-12 23:00N 59°54' W 039°24'0 0.0 280 / 101012.9 7.3 5.0 9.2
2017-Aug-12 22:00N 59°54' W 039°24'0 0.0 290 / 41012.8 7.9 5.5 9.3
2017-Aug-12 21:00N 59°54' W 039°24'0 0.0 290 / 71012.8 8.1 5.3 9.3
2017-Aug-12 20:00N 59°54' W 039°24'0 0.0 300 / 71012.5 8.4 5.5 9.3
2017-Aug-12 19:00N 59°54' W 039°24'0 0.0 310 / 91012.7 8.3 5.7 9.4
2017-Aug-12 18:00N 59°54' W 039°24'0 0.0 310 / 91012.3 8.3 6.0 9.3
2017-Aug-12 17:00N 59°54' W 039°24'0 0.0 320 / 91012.0 8.5 6.2 9.3
2017-Aug-12 16:00N 59°54' W 039°24'9 9.0 320 / 101012.0 8.6 6.4 9.3
2017-Aug-12 15:00N 59°54' W 039°42'7 6.7 320 / 91012.1 7.9 5.7 9.3
2017-Aug-12 14:00N 59°48' W 039°48'0 0.0 330 / 81012.1 8.1 5.9 9.3
2017-Aug-12 13:00N 59°48' W 039°48'0 0.0 340 / 61012.0 8.9 6.3 9.3
2017-Aug-12 12:00N 59°48' W 039°48'6 6.0 040 / 31011.6 8.9 6.7 9.1
2017-Aug-12 11:00N 59°42' W 039°48'6 6.0 1011.3 9.5 6.9 9.0
2017-Aug-12 10:00N 59°48' W 039°48'0 0.0 350 / 41011.2 8.5 6.8 9.0
2017-Aug-12 09:00N 59°48' W 039°48'0 0.0 330 / 21011.0 8.4 6.9 9.0
2017-Aug-12 08:00N 59°48' W 039°48'3 3.0 260 / 31010.8 8.2 6.8 9.0
2017-Aug-12 07:00N 59°48' W 039°54'0 0.0 240 / 31010.6 8.3 6.8 9.0
2017-Aug-12 06:00N 59°48' W 039°54'0 0.0 200 / 51010.9 8.5 6.8 9.0
2017-Aug-12 05:00N 59°48' W 039°54'0 0.0 180 / 71010.8 8.5 6.6 9.0
2017-Aug-12 04:00N 59°48' W 039°54'0 0.0 190 / 81011.2 8.6 6.5 9.0
2017-Aug-12 03:00N 59°48' W 039°54'0 0.0 180 / 101011.6 8.7 6.9 9.0
2017-Aug-12 02:00N 59°48' W 039°54'0 0.0 180 / 101012.0 8.9 7.1 9.0
2017-Aug-12 01:00N 59°48' W 039°54'0 0.0 180 / 101012.4 8.8 7.0 9.0
2017-Aug-12 00:00N 59°48' W 039°54'0 0.0 180 / 131012.8 8.7 7.3 9.0
2017-Aug-11 22:00N 59°48' W 039°54'0 0.0 170 / 111013.3 9.1 7.7 9.1
2017-Aug-11 20:00N 59°48' W 039°54'0 0.0 160 / 111014.1 9.1 7.2 9.1
2017-Aug-11 19:00N 59°48' W 039°54'1110.9 170 / 111014.3 9.1 6.9 9.1
2017-Aug-11 18:00N 59°42' W 039°36'9 4.5 200 / 81014.8 9.0 6.8 9.1
2017-Aug-11 16:00N 59°42' W 039°18'0 0.0 230 / 81015.1 9.2 7.0 9.1
2017-Aug-11 15:00N 59°42' W 039°18'0 0.0 250 / 111015.3 9.0 7.2 9.2
2017-Aug-11 14:00N 59°42' W 039°18'0 0.0 250 / 131015.2 8.9 7.6 9.2
2017-Aug-11 13:00N 59°42' W 039°18'0 0.0 200 / 121014.9 9.1 7.8 9.1
2017-Aug-11 12:00N 59°42' W 039°18'0 0.0 170 / 141014.7 9.0 7.6 9.0
2017-Aug-11 11:00N 59°42' W 039°18'0 0.0 180 / 131014.4 8.9 7.5 9.1
2017-Aug-11 10:00N 59°42' W 039°18'0 0.0 180 / 141014.3 8.8 7.3 9.1
2017-Aug-11 09:00N 59°42' W 039°18'0 0.0 160 / 131014.5 8.7 7.2 9.1
2017-Aug-11 08:00N 59°42' W 039°18'0 0.0 170 / 131014.5 8.3 6.8 9.0
2017-Aug-11 07:00N 59°42' W 039°18'0 0.0 190 / 101014.7 7.9 6.3 9.1
2017-Aug-11 06:00N 59°42' W 039°18'0 0.0 210 / 71014.7 8.0 5.3 9.1
2017-Aug-11 05:00N 59°42' W 039°18'0 0.0 200 / 131014.8 8.3 5.6 9.1
2017-Aug-11 04:00N 59°42' W 039°18'7 6.7 250 / 101015.0 8.5 5.0 9.2
2017-Aug-11 03:00N 59°48' W 039°24'1212.4 230 / 101014.7 8.5 5.0 9.1
2017-Aug-11 02:00N 60°00' W 039°30'0 0.0 230 / 91014.8 8.5 5.8 9.0
2017-Aug-11 01:00N 60°00' W 039°30'0 0.0 220 / 81015.1 8.6 5.9 9.0
2017-Aug-11 00:00N 60°00' W 039°30'0 0.0 220 / 41015.4 8.8 6.4 9.0
2017-Aug-10 23:00N 60°00' W 039°30'6 6.0 250 / 31015.3 8.7 6.3 9.2
2017-Aug-10 22:00N 60°06' W 039°30'0 0.0 280 / 41014.9 9.0 6.1 9.2
2017-Aug-10 21:00N 60°06' W 039°30'0 0.0 270 / 21015.1 9.6 6.0 9.2
2017-Aug-10 20:00N 60°06' W 039°30'0 0.0 250 / 41015.1 9.1 5.9 9.2
2017-Aug-10 19:00N 60°06' W 039°30'0 0.0 360 / 31015.0 9.1 6.2 9.1
2017-Aug-10 18:00N 60°06' W 039°30'0 0.0 010 / 61015.0 9.1 6.5 9.1
2017-Aug-10 17:00N 60°06' W 039°30'6 6.0 360 / 81015.0 9.1 6.7 9.0
2017-Aug-10 16:00N 60°00' W 039°30'0 0.0 010 / 91015.2 9.0 6.5 9.0
2017-Aug-10 15:00N 60°00' W 039°30'0 0.0 360 / 101015.1 8.8 6.5 8.9
2017-Aug-10 14:00N 60°00' W 039°30'0 0.0 020 / 111015.0 8.7 6.0 8.9
2017-Aug-10 13:00N 60°00' W 039°30'0 0.0 020 / 121014.8 8.7 6.3 8.8
2017-Aug-10 12:00N 60°00' W 039°30'0 0.0 020 / 151014.5 9.1 6.3 8.8
2017-Aug-10 11:00N 60°00' W 039°30'0 0.0 040 / 131014.3 9.0 6.5 8.8
2017-Aug-10 10:00N 60°00' W 039°30'0 0.0 030 / 191014.1 8.6 7.0 8.8
2017-Aug-10 09:00N 60°00' W 039°30'0 0.0 030 / 201013.5 9.0 7.3 8.7
2017-Aug-10 08:00N 60°00' W 039°30'6 6.0 020 / 171013.3 9.0 7.4 8.7
2017-Aug-10 07:00N 59°54' W 039°30'7 6.7 020 / 171012.8 8.9 7.5 8.8
2017-Aug-10 06:00N 59°48' W 039°24'6 6.0 040 / 181012.3 9.0 7.5 8.9
2017-Aug-10 05:00N 59°42' W 039°24'0 0.0 040 / 151012.7 8.6 7.1 8.8
2017-Aug-10 04:00N 59°42' W 039°24'6 6.1 030 / 191012.6 8.7 7.2 8.8
2017-Aug-10 03:00N 59°42' W 039°36'1110.9 030 / 161013.2 8.7 7.0 8.7
2017-Aug-10 02:00N 59°48' W 039°54'0 0.0 040 / 161013.3 8.8 7.4 8.6
2017-Aug-10 01:00N 59°48' W 039°54'9 8.5 040 / 151013.4 8.8 7.5 8.6
2017-Aug-10 00:00N 59°54' W 039°42'8 8.5 040 / 131013.7 9.0 7.7 8.7
2017-Aug-09 23:00N 60°00' W 039°30'0 0.0 050 / 181013.3 9.0 7.7 8.8
2017-Aug-09 22:00N 60°00' W 039°30'0 0.0 050 / 151013.6 9.1 7.9 8.9
2017-Aug-09 21:00N 60°00' W 039°30'8 8.5 030 / 161013.0 9.2 7.9 8.9
2017-Aug-09 20:00N 59°54' W 039°18'7 6.7 040 / 141012.4 9.4 8.1 9.0
2017-Aug-09 19:00N 59°48' W 039°12'0 0.0 060 / 131012.0 9.7 8.4 9.0
2017-Aug-09 18:00N 59°48' W 039°12'7 6.7 060 / 101012.0 9.4 8.1 9.0
2017-Aug-09 17:00N 59°54' W 039°18'6 6.0 030 / 101012.1 9.3 8.0 8.9
2017-Aug-09 16:00N 59°54' W 039°30'6 6.0 040 / 81012.4 9.3 8.0 8.9
2017-Aug-09 15:00N 59°54' W 039°18'6 6.0 050 / 71012.6 9.3 8.0 8.8
2017-Aug-09 14:00N 59°54' W 039°06'0 0.0 050 / 101012.8 9.3 8.0 8.9
2017-Aug-09 13:00N 59°54' W 039°06'0 0.0 060 / 91012.9 9.3 8.0 8.9
2017-Aug-09 12:00N 59°54' W 039°06'0 0.0 070 / 91012.8 9.1 7.8 8.8
2017-Aug-09 11:00N 59°54' W 039°06'0 0.0 070 / 101013.0 9.2 7.9 8.8
2017-Aug-09 10:00N 59°54' W 039°06'0 0.0 070 / 101013.2 9.2 7.9 8.8
2017-Aug-09 09:00N 59°54' W 039°06'0 0.0 120 / 81014.1 9.3 8.0 8.8
2017-Aug-09 08:00N 59°54' W 039°06'0 0.0 110 / 91014.3 9.2 7.9 8.8
2017-Aug-09 07:00N 59°54' W 039°06'0 0.0 120 / 91014.4 9.3 8.0 8.8
2017-Aug-09 06:00N 59°54' W 039°06'0 0.0 120 / 81014.8 9.1 7.8 8.8
2017-Aug-09 05:00N 59°54' W 039°06'3 3.0 150 / 91015.4 9.2 7.9 8.8
2017-Aug-09 04:00N 59°54' W 039°12'9 8.5 160 / 111016.0 9.0 7.7 8.8
2017-Aug-09 03:00N 59°48' W 039°24'1110.9 160 / 71016.5 9.2 7.9 8.6
2017-Aug-09 02:00N 59°42' W 039°42'6 6.1 160 / 131016.7 9.1 7.8 8.5
2017-Aug-09 01:00N 59°42' W 039°54'0 0.0 170 / 121017.1 9.3 8.0 8.5
2017-Aug-09 00:00N 59°42' W 039°54'0 0.0 190 / 121017.6 9.4 8.1 8.5
2017-Aug-08 22:00N 59°42' W 039°54'0 0.0 200 / 121017.5 9.0 7.7 8.6
2017-Aug-08 21:00N 59°42' W 039°54'3 3.0 200 / 121017.5 8.8 7.5 8.6
2017-Aug-08 20:00N 59°42' W 039°48'7 6.7 220 / 111017.7 8.7 7.4 8.6
2017-Aug-08 19:00N 59°48' W 039°54'0 0.0 210 / 171017.6 8.9 7.5 8.5
2017-Aug-08 18:00N 59°48' W 039°54'0 0.0 210 / 171018.0 9.3 7.6 8.6
2017-Aug-08 17:00N 59°48' W 039°54'0 0.0 210 / 151018.2 9.3 7.5 8.6
2017-Aug-08 16:00N 59°48' W 039°54'0 0.0 200 / 141018.3 9.1 7.3 8.5
2017-Aug-08 15:00N 59°48' W 039°54'3 3.0 210 / 131018.8 8.9 7.2 8.5
2017-Aug-08 14:00N 59°48' W 039°48'0 0.0 220 / 151018.8 8.7 7.2 8.5
2017-Aug-08 13:00N 59°48' W 039°48'0 0.0 220 / 161018.6 8.8 7.1 8.5
2017-Aug-08 12:00N 59°48' W 039°48'3 3.0 230 / 141018.3 8.7 7.3 8.5
2017-Aug-08 11:00N 59°48' W 039°42'0 0.0 230 / 141018.0 8.6 7.2 8.5
2017-Aug-08 10:00N 59°48' W 039°42'6 6.0 240 / 151017.7 9.3 7.5 8.5
2017-Aug-08 09:00N 59°48' W 039°54'0 0.0 240 / 181017.5 9.0 7.7 8.4
2017-Aug-08 08:00N 59°48' W 039°54'0 0.0 240 / 151017.3 8.7 7.5 8.4
2017-Aug-08 07:00N 59°48' W 039°54'0 0.0 250 / 161016.9 8.3 7.1 8.4
2017-Aug-08 06:00N 59°48' W 039°54'0 0.0 240 / 201016.7 8.4 7.2 8.4
2017-Aug-08 05:00N 59°48' W 039°54'0 0.0 230 / 241016.7 8.2 6.9 8.5
2017-Aug-08 04:00N 59°48' W 039°54'0 0.0 240 / 211016.6 8.3 7.1 8.5
2017-Aug-08 03:00N 59°48' W 039°54'0 0.0 240 / 231016.8 8.1 6.8 8.5
2017-Aug-08 02:00N 59°48' W 039°54'0 0.0 230 / 211017.5 7.9 6.7 8.5
2017-Aug-08 01:00N 59°48' W 039°54'0 0.0 240 / 181017.6 7.9 6.6 8.5
2017-Aug-08 00:00N 59°48' W 039°54'0 0.0 240 / 171017.5 8.0 6.7 8.5
2017-Aug-07 23:00N 59°48' W 039°54'0 0.0 240 / 171017.5 8.6 7.3 8.5
2017-Aug-07 22:00N 59°48' W 039°54'0 0.0 230 / 131017.2 8.6 7.3 8.5
2017-Aug-07 21:00N 59°48' W 039°54'1110.9 220 / 131017.1 8.6 7.2 8.5
2017-Aug-07 20:00N 59°42' W 039°36'6 6.1 210 / 151017.4 8.6 7.0 8.6
2017-Aug-07 19:00N 59°42' W 039°24'3 3.0 220 / 121017.7 8.6 7.3 8.8
2017-Aug-07 18:00N 59°42' W 039°18'0 0.0 210 / 121017.6 8.5 7.2 8.8
2017-Aug-07 17:00N 59°42' W 039°18'0 0.0
2017-Aug-07 16:00N 59°42' W 039°18'3 3.0 170 / 111018.0 8.9 7.6 8.8
2017-Aug-07 15:00N 59°42' W 039°24'0 0.0 140 / 121018.3 8.8 7.4 8.7
2017-Aug-07 14:00N 59°42' W 039°24'6 6.0 140 / 111018.6 8.7 7.3 8.6
2017-Aug-07 13:00N 59°48' W 039°24'3 3.0 140 / 131018.6 8.7 7.1 8.6
2017-Aug-07 12:00N 59°48' W 039°30'0 0.0 140 / 141018.6 8.6 6.8 8.6
2017-Aug-07 11:00N 59°48' W 039°30'0 0.0 130 / 111018.6 8.6 6.8 8.5
2017-Aug-07 10:00N 59°48' W 039°30'7 6.7 130 / 121018.8 8.5 6.7 8.5
2017-Aug-07 09:00N 59°42' W 039°24'0 0.0 120 / 121018.6 8.5 6.6 8.6
2017-Aug-07 08:00N 59°42' W 039°24'0 0.0 110 / 101018.2 8.4 6.4 8.6
2017-Aug-07 07:00N 59°42' W 039°24'0 0.0 120 / 101018.4 8.3 6.2 8.7
2017-Aug-07 06:00N 59°42' W 039°24'0 0.0 110 / 81018.2 8.4 6.1 8.7
2017-Aug-07 05:00N 59°42' W 039°24'0 0.0 120 / 71018.5 8.4 6.0 8.7
2017-Aug-07 04:00N 59°42' W 039°24'0 0.0 140 / 91018.5 8.4 5.7 8.6
2017-Aug-07 03:00N 59°42' W 039°24'0 0.0 130 / 91018.6 8.3 5.7 8.6
2017-Aug-07 02:00N 59°42' W 039°24'0 0.0 120 / 91018.6 8.3 5.4 8.6
2017-Aug-07 01:00N 59°42' W 039°24'0 0.0 130 / 111018.3 8.2 5.7 8.7
2017-Aug-07 00:00N 59°42' W 039°24'   130 / 101018.6 8.1 5.2 8.6
Track history (hours):
 
Tides and Currents Weather Stations Pressure Air Temp Water Temp Dewpoint Dewpoint Depression Visibility Wind Speed Wind Dir Waves Ship Positions

Oceanographic research ship Neil Armstrong (United States)

Owner: Woods Hole Oceanographic Institution, Woods Hole, MA. More information available from US FCC via Universal Licensing System and Coast Guard Vessel Documentation Center.

Last reported at 2017-Aug-17 00:00 UTC. Time now 2017-Aug-17 01:39 UTC.
Position N 56°48' W 048°42'.

Length 72 m; draft 4.4 m.

Type: Ship. MMSI: 338767000.

Wind from 340 at 16 knots

Barometer 1012.8 mb
Air temperature 9.4 ° C
Dewpoint 5.0 ° C
Water temperature 10.4 ° C

Date/timePositionNaut miles runAvg speedWind from/ knotsBaromVisibWave heightAir tempDewpointWater temp
2017-Aug-17 00:00N 56°48' W 048°42'1211.5 340 / 161012.8 9.4 5.010.4
2017-Aug-16 23:00N 56°54' W 048°24'1211.5 340 / 151012.4 9.3 4.610.4
2017-Aug-16 22:00N 57°00' W 048°06'9 8.9 340 / 161011.8 9.4 3.510.3
2017-Aug-16 21:00N 57°06' W 047°54'1111.5 300 / 131011.9 9.3 3.810.0
2017-Aug-16 20:00N 57°12' W 047°36'1111.4 320 / 101011.8 9.1 5.110.0
2017-Aug-16 19:00N 57°18' W 047°18'1111.4 320 / 101011.6 8.7 5.1 9.7
2017-Aug-16 18:00N 57°24' W 047°00'1111.4 270 / 61011.4 8.4 5.5 9.7
2017-Aug-16 17:00N 57°30' W 046°42'2311.4 280 / 41011.3 7.9 4.6 9.8
2017-Aug-16 15:00N 57°42' W 046°06'1111.3 280 / 81010.9 7.7 4.5 9.1
2017-Aug-16 14:00N 57°48' W 045°48'1111.3 150 / 31010.5 7.7 4.6 9.3
2017-Aug-16 13:00N 57°54' W 045°30'1111.3 160 / 21010.4 7.4 4.5 8.6
2017-Aug-16 12:00N 58°00' W 045°12'1111.3 150 / 21010.3 7.2 4.3 8.6
2017-Aug-16 11:00N 58°06' W 044°54'20 9.9 170 / 31010.4 6.5 3.8 8.7
2017-Aug-16 09:00N 58°18' W 044°24'1111.2 260 / 31009.7 8.0 2.8 8.3
2017-Aug-16 08:00N 58°24' W 044°06'1413.9 300 / 51009.5 7.5 4.1 8.2
2017-Aug-16 07:00N 58°30' W 043°42'1413.5 350 / 41009.3 7.8 5.4 8.4
2017-Aug-16 06:00N 58°42' W 043°30'1111.1 340 / 81008.7 7.7 5.3 8.5
2017-Aug-16 05:00N 58°48' W 043°12'1111.1 340 / 81008.4 7.8 5.5 8.8
2017-Aug-16 04:00N 58°54' W 042°54'1111.1 330 / 81007.9 7.7 5.9 8.9
2017-Aug-16 03:00N 59°00' W 042°36'1413.7 350 / 81007.8 8.4 6.4 8.7
2017-Aug-16 02:00N 59°06' W 042°12'1111.0 350 / 71007.6 8.4 6.1 8.5
2017-Aug-16 01:00N 59°12' W 041°54'1111.0 030 / 51007.5 8.7 5.4 8.7
2017-Aug-16 00:00N 59°18' W 041°36'1111.0 350 / 71007.2 9.0 6.5 9.0
2017-Aug-15 23:00N 59°24' W 041°18'1110.9 010 / 41006.9 9.1 6.0 8.9
2017-Aug-15 22:00N 59°30' W 041°00'1110.9 050 / 61006.6 9.2 5.3 9.2
2017-Aug-15 21:00N 59°36' W 040°42'9 9.1 030 / 51006.5 9.2 6.0 9.1
2017-Aug-15 20:00N 59°36' W 040°24'1110.9 040 / 71006.3 9.3 5.7 9.1
2017-Aug-15 19:00N 59°42' W 040°06'1110.9 040 / 81006.0 9.6 5.5 9.3
2017-Aug-15 18:00N 59°48' W 039°48'9 8.5 050 / 81005.8 9.6 5.0 9.5
2017-Aug-15 17:00N 59°54' W 039°36'6 6.0 040 / 91005.7 9.7 4.6 9.4
2017-Aug-15 16:00N 60°00' W 039°36'0 0.0 030 / 61005.7 9.6 5.0 9.5
2017-Aug-15 15:00N 60°00' W 039°36'0 0.0 040 / 61005.8 9.7 4.1 9.5
2017-Aug-15 14:00N 60°00' W 039°36'0 0.0 060 / 81005.8 9.8 3.6 9.6
2017-Aug-15 13:00N 60°00' W 039°36'0 0.0 070 / 91005.7 9.6 3.1 9.5
2017-Aug-15 12:00N 60°00' W 039°36'0 0.0 050 / 91005.8 9.2 4.9 9.5
2017-Aug-15 11:00N 60°00' W 039°36'0 0.0 020 / 91005.9 8.9 4.6 9.4
2017-Aug-15 10:00N 60°00' W 039°36'0 0.0 020 / 101006.0 8.7 3.6 9.4
2017-Aug-15 09:00N 60°00' W 039°36'0 0.0 040 / 41005.9 8.7 3.2 9.3
2017-Aug-15 08:00N 60°00' W 039°36'0 0.0 030 / 51006.0 8.3 3.9 9.3
2017-Aug-15 07:00N 60°00' W 039°36'0 0.0 040 / 51006.1 8.0 3.8 9.2
2017-Aug-15 06:00N 60°00' W 039°36'0 0.0 040 / 61006.1 7.7 3.5 9.2
2017-Aug-15 05:00N 60°00' W 039°36'0 0.0 070 / 31006.1 7.6 3.2 9.2
2017-Aug-15 04:00N 60°00' W 039°36'0 0.0 060 / 51006.2 7.1 3.3 9.2
2017-Aug-15 03:00N 60°00' W 039°36'0 0.0 140 / 41006.5 6.7 3.7 9.2
2017-Aug-15 02:00N 60°00' W 039°36'0 0.0 100 / 41006.6 6.2 3.4 9.2
2017-Aug-15 01:00N 60°00' W 039°36'0 0.0 120 / 61006.7 6.4 3.7 9.2
2017-Aug-15 00:00N 60°00' W 039°36'0 0.0 130 / 71006.9 6.4 3.9 9.2
2017-Aug-14 23:00N 60°00' W 039°36'0 0.0 070 / 41007.1 6.3 4.3 9.3
2017-Aug-14 22:00N 60°00' W 039°36'0 0.0 160 / 41006.9 6.5 4.7 9.3
2017-Aug-14 21:00N 60°00' W 039°36'0 0.0 130 / 71006.8 6.6 4.9 9.3
2017-Aug-14 20:00N 60°00' W 039°36'0 0.0 180 / 51006.5 6.5 4.8 9.3
2017-Aug-14 19:00N 60°00' W 039°36'0 0.0 180 / 61006.6 6.6 4.8 9.3
2017-Aug-14 18:00N 60°00' W 039°36'0 0.0 200 / 81006.7 6.8 4.9 9.2
2017-Aug-14 17:00N 60°00' W 039°36'0 0.0 190 / 91006.6 6.8 4.7 9.3
2017-Aug-14 16:00N 60°00' W 039°36'6 6.0 170 / 131006.8 6.7 4.7 9.3
2017-Aug-14 15:00N 59°54' W 039°36'3 3.0 160 / 101007.1 6.2 4.1 9.5
2017-Aug-14 14:00N 59°54' W 039°30'0 0.0 170 / 111007.1 5.9 3.7 9.5
2017-Aug-14 13:00N 59°54' W 039°30'0 0.0 160 / 91007.2 5.7 3.6 9.5
2017-Aug-14 12:00N 59°54' W 039°30'0 0.0 150 / 61007.5 5.9 3.7 9.4
2017-Aug-14 11:00N 59°54' W 039°30'0 0.0 180 / 91007.5 5.6 3.5 9.4
2017-Aug-14 10:00N 59°54' W 039°30'6 6.0 180 / 91007.6 5.6 3.4 9.4
2017-Aug-14 09:00N 60°00' W 039°30'0 0.0 230 / 51007.8 6.1 3.7 9.3
2017-Aug-14 08:00N 60°00' W 039°30'0 0.0 180 / 71007.9 6.5 4.0 9.2
2017-Aug-14 07:00N 60°00' W 039°30'7 6.7 170 / 81008.1 6.3 3.8 9.2
2017-Aug-14 06:00N 59°54' W 039°24'0 0.0 160 / 71008.4 6.4 3.7 9.3
2017-Aug-14 05:00N 59°54' W 039°24'0 0.0 110 / 61008.5 6.4 3.7 9.1
2017-Aug-14 04:00N 59°54' W 039°24'0 0.0 140 / 41008.6 6.4 3.4 9.1
2017-Aug-14 03:00N 59°54' W 039°24'0 0.0 120 / 21009.2 6.8 3.7 9.3
2017-Aug-14 02:00N 59°54' W 039°24'0 0.0 020 / 31009.5 7.0 3.9 9.3
2017-Aug-14 01:00N 59°54' W 039°24'0 0.0 090 / 21009.7 7.1 4.1 9.4
2017-Aug-14 00:00N 59°54' W 039°24'0 0.0 140 / 31009.6 7.1 4.0 9.4
2017-Aug-13 23:00N 59°54' W 039°24'0 0.0 100 / 31009.8 7.3 4.4 9.3
2017-Aug-13 22:00N 59°54' W 039°24'0 0.0 120 / 31009.6 7.4 4.5 9.3
2017-Aug-13 21:00N 59°54' W 039°24'0 0.0 330 / 31010.0 7.7 4.6 9.4
2017-Aug-13 20:00N 59°54' W 039°24'0 0.0 050 / 41010.0 7.8 4.7 9.3
2017-Aug-13 19:00N 59°54' W 039°24'0 0.0 320 / 31010.1 7.9 4.5 9.3
2017-Aug-13 18:00N 59°54' W 039°24'0 0.0 340 / 11010.3 8.2 4.7 9.2
2017-Aug-13 17:00N 59°54' W 039°24'0 0.0 060 / 41010.0 8.5 5.0 9.1
2017-Aug-13 16:00N 59°54' W 039°24'0 0.0 1010.1 8.6 4.6 9.2
2017-Aug-13 15:00N 59°54' W 039°24'0 0.0 060 / 41010.3 8.6 4.6 9.4
2017-Aug-13 14:00N 59°54' W 039°24'0 0.0 100 / 21010.5 8.6 4.5 9.3
2017-Aug-13 13:00N 59°54' W 039°24'0 0.0 100 / 41010.5 8.4 4.3 9.3
2017-Aug-13 12:00N 59°54' W 039°24'0 0.0 150 / 61010.7 7.9 4.6 9.2
2017-Aug-13 11:00N 59°54' W 039°24'0 0.0 190 / 41010.8 7.7 5.1 9.2
2017-Aug-13 10:00N 59°54' W 039°24'0 0.0 180 / 41010.9 7.6 5.1 9.1
2017-Aug-13 09:00N 59°54' W 039°24'0 0.0 220 / 71011.4 7.6 5.4 9.1
2017-Aug-13 08:00N 59°54' W 039°24'0 0.0 260 / 81011.5 7.4 5.1 9.1
2017-Aug-13 07:00N 59°54' W 039°24'0 0.0 240 / 151011.6 7.6 6.0 9.1
2017-Aug-13 06:00N 59°54' W 039°24'0 0.0 270 / 101011.7 7.9 6.1 9.2
2017-Aug-13 05:00N 59°54' W 039°24'0 0.0 270 / 51011.9 7.7 5.5 9.2
2017-Aug-13 04:00N 59°54' W 039°24'0 0.0 280 / 51012.2 7.4 5.6 9.2
2017-Aug-13 03:00N 59°54' W 039°24'0 0.0 290 / 81012.4 7.4 5.5 9.1
2017-Aug-13 02:00N 59°54' W 039°24'0 0.0 270 / 91012.4 8.1 5.4 9.2
2017-Aug-13 01:00N 59°54' W 039°24'0 0.0 270 / 111012.7 8.4 5.4 9.3
2017-Aug-13 00:00N 59°54' W 039°24'0 0.0 280 / 121012.7 8.0 5.1 9.3
2017-Aug-12 23:00N 59°54' W 039°24'0 0.0 280 / 101012.9 7.3 5.0 9.2
2017-Aug-12 22:00N 59°54' W 039°24'0 0.0 290 / 41012.8 7.9 5.5 9.3
2017-Aug-12 21:00N 59°54' W 039°24'0 0.0 290 / 71012.8 8.1 5.3 9.3
2017-Aug-12 20:00N 59°54' W 039°24'0 0.0 300 / 71012.5 8.4 5.5 9.3
2017-Aug-12 19:00N 59°54' W 039°24'0 0.0 310 / 91012.7 8.3 5.7 9.4
2017-Aug-12 18:00N 59°54' W 039°24'0 0.0 310 / 91012.3 8.3 6.0 9.3
2017-Aug-12 17:00N 59°54' W 039°24'0 0.0 320 / 91012.0 8.5 6.2 9.3
2017-Aug-12 16:00N 59°54' W 039°24'9 9.0 320 / 101012.0 8.6 6.4 9.3
2017-Aug-12 15:00N 59°54' W 039°42'7 6.7 320 / 91012.1 7.9 5.7 9.3
2017-Aug-12 14:00N 59°48' W 039°48'0 0.0 330 / 81012.1 8.1 5.9 9.3
2017-Aug-12 13:00N 59°48' W 039°48'0 0.0 340 / 61012.0 8.9 6.3 9.3
2017-Aug-12 12:00N 59°48' W 039°48'6 6.0 040 / 31011.6 8.9 6.7 9.1
2017-Aug-12 11:00N 59°42' W 039°48'6 6.0 1011.3 9.5 6.9 9.0
2017-Aug-12 10:00N 59°48' W 039°48'0 0.0 350 / 41011.2 8.5 6.8 9.0
2017-Aug-12 09:00N 59°48' W 039°48'0 0.0 330 / 21011.0 8.4 6.9 9.0
2017-Aug-12 08:00N 59°48' W 039°48'3 3.0 260 / 31010.8 8.2 6.8 9.0
2017-Aug-12 07:00N 59°48' W 039°54'0 0.0 240 / 31010.6 8.3 6.8 9.0
2017-Aug-12 06:00N 59°48' W 039°54'0 0.0 200 / 51010.9 8.5 6.8 9.0
2017-Aug-12 05:00N 59°48' W 039°54'0 0.0 180 / 71010.8 8.5 6.6 9.0
2017-Aug-12 04:00N 59°48' W 039°54'0 0.0 190 / 81011.2 8.6 6.5 9.0
2017-Aug-12 03:00N 59°48' W 039°54'0 0.0 180 / 101011.6 8.7 6.9 9.0
2017-Aug-12 02:00N 59°48' W 039°54'0 0.0 180 / 101012.0 8.9 7.1 9.0
2017-Aug-12 01:00N 59°48' W 039°54'0 0.0 180 / 101012.4 8.8 7.0 9.0
2017-Aug-12 00:00N 59°48' W 039°54'0 0.0 180 / 131012.8 8.7 7.3 9.0
2017-Aug-11 22:00N 59°48' W 039°54'0 0.0 170 / 111013.3 9.1 7.7 9.1
2017-Aug-11 20:00N 59°48' W 039°54'0 0.0 160 / 111014.1 9.1 7.2 9.1
2017-Aug-11 19:00N 59°48' W 039°54'1110.9 170 / 111014.3 9.1 6.9 9.1
2017-Aug-11 18:00N 59°42' W 039°36'9 4.5 200 / 81014.8 9.0 6.8 9.1
2017-Aug-11 16:00N 59°42' W 039°18'0 0.0 230 / 81015.1 9.2 7.0 9.1
2017-Aug-11 15:00N 59°42' W 039°18'0 0.0 250 / 111015.3 9.0 7.2 9.2
2017-Aug-11 14:00N 59°42' W 039°18'0 0.0 250 / 131015.2 8.9 7.6 9.2
2017-Aug-11 13:00N 59°42' W 039°18'0 0.0 200 / 121014.9 9.1 7.8 9.1
2017-Aug-11 12:00N 59°42' W 039°18'0 0.0 170 / 141014.7 9.0 7.6 9.0
2017-Aug-11 11:00N 59°42' W 039°18'0 0.0 180 / 131014.4 8.9 7.5 9.1
2017-Aug-11 10:00N 59°42' W 039°18'0 0.0 180 / 141014.3 8.8 7.3 9.1
2017-Aug-11 09:00N 59°42' W 039°18'0 0.0 160 / 131014.5 8.7 7.2 9.1
2017-Aug-11 08:00N 59°42' W 039°18'0 0.0 170 / 131014.5 8.3 6.8 9.0
2017-Aug-11 07:00N 59°42' W 039°18'0 0.0 190 / 101014.7 7.9 6.3 9.1
2017-Aug-11 06:00N 59°42' W 039°18'0 0.0 210 / 71014.7 8.0 5.3 9.1
2017-Aug-11 05:00N 59°42' W 039°18'0 0.0 200 / 131014.8 8.3 5.6 9.1
2017-Aug-11 04:00N 59°42' W 039°18'7 6.7 250 / 101015.0 8.5 5.0 9.2
2017-Aug-11 03:00N 59°48' W 039°24'1212.4 230 / 101014.7 8.5 5.0 9.1
2017-Aug-11 02:00N 60°00' W 039°30'0 0.0 230 / 91014.8 8.5 5.8 9.0
2017-Aug-11 01:00N 60°00' W 039°30'0 0.0 220 / 81015.1 8.6 5.9 9.0
2017-Aug-11 00:00N 60°00' W 039°30'0 0.0 220 / 41015.4 8.8 6.4 9.0
2017-Aug-10 23:00N 60°00' W 039°30'6 6.0 250 / 31015.3 8.7 6.3 9.2
2017-Aug-10 22:00N 60°06' W 039°30'0 0.0 280 / 41014.9 9.0 6.1 9.2
2017-Aug-10 21:00N 60°06' W 039°30'0 0.0 270 / 21015.1 9.6 6.0 9.2
2017-Aug-10 20:00N 60°06' W 039°30'0 0.0 250 / 41015.1 9.1 5.9 9.2
2017-Aug-10 19:00N 60°06' W 039°30'0 0.0 360 / 31015.0 9.1 6.2 9.1
2017-Aug-10 18:00N 60°06' W 039°30'0 0.0 010 / 61015.0 9.1 6.5 9.1
2017-Aug-10 17:00N 60°06' W 039°30'6 6.0 360 / 81015.0 9.1 6.7 9.0
2017-Aug-10 16:00N 60°00' W 039°30'0 0.0 010 / 91015.2 9.0 6.5 9.0
2017-Aug-10 15:00N 60°00' W 039°30'0 0.0 360 / 101015.1 8.8 6.5 8.9
2017-Aug-10 14:00N 60°00' W 039°30'0 0.0 020 / 111015.0 8.7 6.0 8.9
2017-Aug-10 13:00N 60°00' W 039°30'0 0.0 020 / 121014.8 8.7 6.3 8.8
2017-Aug-10 12:00N 60°00' W 039°30'0 0.0 020 / 151014.5 9.1 6.3 8.8
2017-Aug-10 11:00N 60°00' W 039°30'0 0.0 040 / 131014.3 9.0 6.5 8.8
2017-Aug-10 10:00N 60°00' W 039°30'0 0.0 030 / 191014.1 8.6 7.0 8.8
2017-Aug-10 09:00N 60°00' W 039°30'0 0.0 030 / 201013.5 9.0 7.3 8.7
2017-Aug-10 08:00N 60°00' W 039°30'6 6.0 020 / 171013.3 9.0 7.4 8.7
2017-Aug-10 07:00N 59°54' W 039°30'7 6.7 020 / 171012.8 8.9 7.5 8.8
2017-Aug-10 06:00N 59°48' W 039°24'6 6.0 040 / 181012.3 9.0 7.5 8.9
2017-Aug-10 05:00N 59°42' W 039°24'0 0.0 040 / 151012.7 8.6 7.1 8.8
2017-Aug-10 04:00N 59°42' W 039°24'6 6.1 030 / 191012.6 8.7 7.2 8.8
2017-Aug-10 03:00N 59°42' W 039°36'1110.9 030 / 161013.2 8.7 7.0 8.7
2017-Aug-10 02:00N 59°48' W 039°54'0 0.0 040 / 161013.3 8.8 7.4 8.6
2017-Aug-10 01:00N 59°48' W 039°54'9 8.5 040 / 151013.4 8.8 7.5 8.6
2017-Aug-10 00:00N 59°54' W 039°42'8 8.5 040 / 131013.7 9.0 7.7 8.7
2017-Aug-09 23:00N 60°00' W 039°30'0 0.0 050 / 181013.3 9.0 7.7 8.8
2017-Aug-09 22:00N 60°00' W 039°30'0 0.0 050 / 151013.6 9.1 7.9 8.9
2017-Aug-09 21:00N 60°00' W 039°30'8 8.5 030 / 161013.0 9.2 7.9 8.9
2017-Aug-09 20:00N 59°54' W 039°18'7 6.7 040 / 141012.4 9.4 8.1 9.0
2017-Aug-09 19:00N 59°48' W 039°12'0 0.0 060 / 131012.0 9.7 8.4 9.0
2017-Aug-09 18:00N 59°48' W 039°12'7 6.7 060 / 101012.0 9.4 8.1 9.0
2017-Aug-09 17:00N 59°54' W 039°18'6 6.0 030 / 101012.1 9.3 8.0 8.9
2017-Aug-09 16:00N 59°54' W 039°30'6 6.0 040 / 81012.4 9.3 8.0 8.9
2017-Aug-09 15:00N 59°54' W 039°18'6 6.0 050 / 71012.6 9.3 8.0 8.8
2017-Aug-09 14:00N 59°54' W 039°06'0 0.0 050 / 101012.8 9.3 8.0 8.9
2017-Aug-09 13:00N 59°54' W 039°06'0 0.0 060 / 91012.9 9.3 8.0 8.9
2017-Aug-09 12:00N 59°54' W 039°06'0 0.0 070 / 91012.8 9.1 7.8 8.8
2017-Aug-09 11:00N 59°54' W 039°06'0 0.0 070 / 101013.0 9.2 7.9 8.8
2017-Aug-09 10:00N 59°54' W 039°06'0 0.0 070 / 101013.2 9.2 7.9 8.8
2017-Aug-09 09:00N 59°54' W 039°06'0 0.0 120 / 81014.1 9.3 8.0 8.8
2017-Aug-09 08:00N 59°54' W 039°06'0 0.0 110 / 91014.3 9.2 7.9 8.8
2017-Aug-09 07:00N 59°54' W 039°06'0 0.0 120 / 91014.4 9.3 8.0 8.8
2017-Aug-09 06:00N 59°54' W 039°06'0 0.0 120 / 81014.8 9.1 7.8 8.8
2017-Aug-09 05:00N 59°54' W 039°06'3 3.0 150 / 91015.4 9.2 7.9 8.8
2017-Aug-09 04:00N 59°54' W 039°12'9 8.5 160 / 111016.0 9.0 7.7 8.8
2017-Aug-09 03:00N 59°48' W 039°24'1110.9 160 / 71016.5 9.2 7.9 8.6
2017-Aug-09 02:00N 59°42' W 039°42'6 6.1 160 / 131016.7 9.1 7.8 8.5
2017-Aug-09 01:00N 59°42' W 039°54'0 0.0 170 / 121017.1 9.3 8.0 8.5
2017-Aug-09 00:00N 59°42' W 039°54'0 0.0 190 / 121017.6 9.4 8.1 8.5
2017-Aug-08 22:00N 59°42' W 039°54'0 0.0 200 / 121017.5 9.0 7.7 8.6
2017-Aug-08 21:00N 59°42' W 039°54'3 3.0 200 / 121017.5 8.8 7.5 8.6
2017-Aug-08 20:00N 59°42' W 039°48'7 6.7 220 / 111017.7 8.7 7.4 8.6
2017-Aug-08 19:00N 59°48' W 039°54'0 0.0 210 / 171017.6 8.9 7.5 8.5
2017-Aug-08 18:00N 59°48' W 039°54'0 0.0 210 / 171018.0 9.3 7.6 8.6
2017-Aug-08 17:00N 59°48' W 039°54'0 0.0 210 / 151018.2 9.3 7.5 8.6
2017-Aug-08 16:00N 59°48' W 039°54'0 0.0 200 / 141018.3 9.1 7.3 8.5
2017-Aug-08 15:00N 59°48' W 039°54'3 3.0 210 / 131018.8 8.9 7.2 8.5
2017-Aug-08 14:00N 59°48' W 039°48'0 0.0 220 / 151018.8 8.7 7.2 8.5
2017-Aug-08 13:00N 59°48' W 039°48'0 0.0 220 / 161018.6 8.8 7.1 8.5
2017-Aug-08 12:00N 59°48' W 039°48'3 3.0 230 / 141018.3 8.7 7.3 8.5
2017-Aug-08 11:00N 59°48' W 039°42'0 0.0 230 / 141018.0 8.6 7.2 8.5
2017-Aug-08 10:00N 59°48' W 039°42'6 6.0 240 / 151017.7 9.3 7.5 8.5
2017-Aug-08 09:00N 59°48' W 039°54'0 0.0 240 / 181017.5 9.0 7.7 8.4
2017-Aug-08 08:00N 59°48' W 039°54'0 0.0 240 / 151017.3 8.7 7.5 8.4
2017-Aug-08 07:00N 59°48' W 039°54'0 0.0 250 / 161016.9 8.3 7.1 8.4
2017-Aug-08 06:00N 59°48' W 039°54'0 0.0 240 / 201016.7 8.4 7.2 8.4
2017-Aug-08 05:00N 59°48' W 039°54'0 0.0 230 / 241016.7 8.2 6.9 8.5
2017-Aug-08 04:00N 59°48' W 039°54'0 0.0 240 / 211016.6 8.3 7.1 8.5
2017-Aug-08 03:00N 59°48' W 039°54'0 0.0 240 / 231016.8 8.1 6.8 8.5
2017-Aug-08 02:00N 59°48' W 039°54'0 0.0 230 / 211017.5 7.9 6.7 8.5
2017-Aug-08 01:00N 59°48' W 039°54'0 0.0 240 / 181017.6 7.9 6.6 8.5
2017-Aug-08 00:00N 59°48' W 039°54'0 0.0 240 / 171017.5 8.0 6.7 8.5
2017-Aug-07 23:00N 59°48' W 039°54'0 0.0 240 / 171017.5 8.6 7.3 8.5
2017-Aug-07 22:00N 59°48' W 039°54'0 0.0 230 / 131017.2 8.6 7.3 8.5
2017-Aug-07 21:00N 59°48' W 039°54'1110.9 220 / 131017.1 8.6 7.2 8.5
2017-Aug-07 20:00N 59°42' W 039°36'6 6.1 210 / 151017.4 8.6 7.0 8.6
2017-Aug-07 19:00N 59°42' W 039°24'3 3.0 220 / 121017.7 8.6 7.3 8.8
2017-Aug-07 18:00N 59°42' W 039°18'0 0.0 210 / 121017.6 8.5 7.2 8.8
2017-Aug-07 17:00N 59°42' W 039°18'0 0.0
2017-Aug-07 16:00N 59°42' W 039°18'3 3.0 170 / 111018.0 8.9 7.6 8.8
2017-Aug-07 15:00N 59°42' W 039°24'0 0.0 140 / 121018.3 8.8 7.4 8.7
2017-Aug-07 14:00N 59°42' W 039°24'6 6.0 140 / 111018.6 8.7 7.3 8.6
2017-Aug-07 13:00N 59°48' W 039°24'3 3.0 140 / 131018.6 8.7 7.1 8.6
2017-Aug-07 12:00N 59°48' W 039°30'0 0.0 140 / 141018.6 8.6 6.8 8.6
2017-Aug-07 11:00N 59°48' W 039°30'0 0.0 130 / 111018.6 8.6 6.8 8.5
2017-Aug-07 10:00N 59°48' W 039°30'7 6.7 130 / 121018.8 8.5 6.7 8.5
2017-Aug-07 09:00N 59°42' W 039°24'0 0.0 120 / 121018.6 8.5 6.6 8.6
2017-Aug-07 08:00N 59°42' W 039°24'0 0.0 110 / 101018.2 8.4 6.4 8.6
2017-Aug-07 07:00N 59°42' W 039°24'0 0.0 120 / 101018.4 8.3 6.2 8.7
2017-Aug-07 06:00N 59°42' W 039°24'0 0.0 110 / 81018.2 8.4 6.1 8.7
2017-Aug-07 05:00N 59°42' W 039°24'0 0.0 120 / 71018.5 8.4 6.0 8.7
2017-Aug-07 04:00N 59°42' W 039°24'0 0.0 140 / 91018.5 8.4 5.7 8.6
2017-Aug-07 03:00N 59°42' W 039°24'0 0.0 130 / 91018.6 8.3 5.7 8.6
2017-Aug-07 02:00N 59°42' W 039°24'0 0.0 120 / 91018.6 8.3 5.4 8.6
2017-Aug-07 01:00N 59°42' W 039°24'0 0.0 130 / 111018.3 8.2 5.7 8.7
2017-Aug-07 00:00N 59°42' W 039°24'   130 / 101018.6 8.1 5.2 8.6

Dump ship's entire track history